createdAt,value
2019-03-30T00:01:38.869Z,3.72
2019-03-30T00:04:04.726Z,3.64
2019-03-30T00:06:30.561Z,3.83
2019-03-30T00:08:56.422Z,3.44
2019-03-30T00:11:22.278Z,3.82
2019-03-30T00:13:48.132Z,3.89
2019-03-30T00:16:13.978Z,3.79
2019-03-30T00:18:41.327Z,4.04
2019-03-30T00:21:07.472Z,4.07
2019-03-30T00:23:33.324Z,3.78
2019-03-30T00:25:59.189Z,3.78
2019-03-30T00:28:25.048Z,3.58
2019-03-30T00:30:50.896Z,3.56
2019-03-30T00:33:16.743Z,3.22
2019-03-30T00:35:42.591Z,3.25
2019-03-30T00:38:08.430Z,2.74
2019-03-30T00:40:34.308Z,2.85
2019-03-30T00:43:00.149Z,3.31
2019-03-30T00:45:25.992Z,3.32
2019-03-30T00:47:51.836Z,3.45
2019-03-30T00:50:17.674Z,3.50
2019-03-30T00:52:43.535Z,3.64
2019-03-30T00:55:09.394Z,3.74
2019-03-30T00:57:35.342Z,3.51
2019-03-30T01:00:01.177Z,3.44
2019-03-30T01:02:27.023Z,3.54
2019-03-30T01:04:52.866Z,3.55
2019-03-30T01:07:18.694Z,3.40
2019-03-30T01:09:44.645Z,3.20
2019-03-30T01:12:11.113Z,3.07
2019-03-30T01:14:36.964Z,3.12
2019-03-30T01:17:04.035Z,3.08
2019-03-30T01:19:29.868Z,3.07
2019-03-30T01:21:56.374Z,2.94
2019-03-30T01:24:22.271Z,3.24
2019-03-30T01:26:48.099Z,3.31
2019-03-30T01:29:13.948Z,3.08
2019-03-30T01:31:39.793Z,3.06
2019-03-30T01:34:05.644Z,2.85
2019-03-30T01:36:31.497Z,2.72
2019-03-30T01:38:57.393Z,2.82
2019-03-30T01:41:23.239Z,2.95
2019-03-30T01:43:49.073Z,2.99
2019-03-30T01:46:14.920Z,2.94
2019-03-30T01:48:40.754Z,3.12
2019-03-30T01:51:06.607Z,2.98
2019-03-30T01:53:32.430Z,3.07
2019-03-30T01:55:58.289Z,2.91
2019-03-30T01:58:24.112Z,2.58
2019-03-30T02:00:49.974Z,2.80
2019-03-30T02:03:15.918Z,2.74
2019-03-30T02:05:41.754Z,2.76
2019-03-30T02:08:07.599Z,2.74
2019-03-30T02:10:41.298Z,2.69
2019-03-30T02:13:07.421Z,2.58
2019-03-30T02:15:33.361Z,2.45
2019-03-30T02:17:59.222Z,2.38
2019-03-30T02:20:36.766Z,2.56
2019-03-30T02:23:02.636Z,2.35
2019-03-30T02:25:28.530Z,2.25
2019-03-30T02:27:54.318Z,2.29
2019-03-30T02:30:20.294Z,2.37
2019-03-30T02:32:46.153Z,2.20
2019-03-30T02:35:12.109Z,1.88
2019-03-30T02:37:37.963Z,1.55
2019-03-30T02:40:05.106Z,1.48
2019-03-30T02:42:30.966Z,1.74
2019-03-30T02:44:56.838Z,1.91
2019-03-30T02:47:22.702Z,2.07
2019-03-30T02:49:48.544Z,2.13
2019-03-30T02:52:14.390Z,2.23
2019-03-30T02:54:40.255Z,1.91
2019-03-30T02:57:06.125Z,1.91
2019-03-30T02:59:31.974Z,2.03
2019-03-30T03:01:57.805Z,1.78
2019-03-30T03:04:23.756Z,1.63
2019-03-30T03:06:49.650Z,1.65
2019-03-30T03:09:15.502Z,1.77
2019-03-30T03:11:41.486Z,2.10
2019-03-30T03:14:07.327Z,2.02
2019-03-30T03:16:33.176Z,1.91
2019-03-30T03:18:59.032Z,1.99
2019-03-30T03:21:24.957Z,2.06
2019-03-30T03:23:50.828Z,1.76
2019-03-30T03:26:16.669Z,1.84
2019-03-30T03:28:42.560Z,1.81
2019-03-30T03:31:08.409Z,1.88
2019-03-30T03:33:34.258Z,1.66
2019-03-30T03:36:00.086Z,1.63
2019-03-30T03:38:25.936Z,1.72
2019-03-30T03:40:51.798Z,1.67
2019-03-30T03:43:17.638Z,1.82
2019-03-30T03:45:43.509Z,1.99
2019-03-30T03:48:09.350Z,1.84
2019-03-30T03:50:42.604Z,1.94
2019-03-30T03:53:10.841Z,1.81
2019-03-30T03:55:39.022Z,1.61
2019-03-30T03:58:05.875Z,1.34
2019-03-30T04:00:32.954Z,1.47
2019-03-30T04:02:59.528Z,1.45
2019-03-30T04:05:26.192Z,1.66
2019-03-30T04:07:52.749Z,1.47
2019-03-30T04:10:18.894Z,1.27
2019-03-30T04:12:45.963Z,1.06
2019-03-30T04:15:15.720Z,1.07
2019-03-30T04:17:41.666Z,1.28
2019-03-30T04:20:07.610Z,1.34
2019-03-30T04:22:33.480Z,1.33
2019-03-30T04:24:59.414Z,1.43
2019-03-30T04:27:25.281Z,1.51
2019-03-30T04:29:51.113Z,1.39
2019-03-30T04:32:16.965Z,1.52
2019-03-30T04:34:42.833Z,1.07
2019-03-30T04:37:08.699Z,1.17
2019-03-30T04:39:34.543Z,1.45
2019-03-30T04:42:00.420Z,1.36
2019-03-30T04:44:26.294Z,1.32
2019-03-30T04:46:52.150Z,1.11
2019-03-30T04:49:18.002Z,1.37
2019-03-30T04:51:56.779Z,1.32
2019-03-30T04:54:11.597Z,1.46
2019-03-30T04:56:37.422Z,1.38
2019-03-30T04:59:03.312Z,1.41
2019-03-30T05:01:29.156Z,1.23
2019-03-30T05:03:55.006Z,0.98
2019-03-30T05:06:20.876Z,1.03
2019-03-30T05:08:47.000Z,0.79
2019-03-30T05:11:12.844Z,0.95
2019-03-30T05:13:38.701Z,0.97
2019-03-30T05:16:04.574Z,0.97
2019-03-30T05:18:30.416Z,0.89
2019-03-30T05:20:56.257Z,0.76
2019-03-30T05:23:22.092Z,1.06
2019-03-30T05:25:47.966Z,1.33
2019-03-30T05:28:13.802Z,1.22
2019-03-30T05:30:39.659Z,1.40
2019-03-30T05:33:06.539Z,1.33
2019-03-30T05:35:32.552Z,1.05
2019-03-30T05:38:01.307Z,0.95
2019-03-30T05:40:26.288Z,0.98
2019-03-30T05:42:52.135Z,1.12
2019-03-30T05:45:18.042Z,1.12
2019-03-30T05:47:43.867Z,1.12
2019-03-30T05:50:09.803Z,1.26
2019-03-30T05:52:35.911Z,1.43
2019-03-30T05:55:01.904Z,1.60
2019-03-30T05:57:27.880Z,1.76
2019-03-30T05:59:55.851Z,1.90
2019-03-30T06:02:21.470Z,1.90
2019-03-30T06:04:47.299Z,1.85
2019-03-30T06:07:13.163Z,2.11
2019-03-30T06:09:38.989Z,2.16
2019-03-30T06:12:04.817Z,2.17
2019-03-30T06:14:30.783Z,2.13
2019-03-30T06:16:56.637Z,2.16
2019-03-30T06:19:22.492Z,2.37
2019-03-30T06:21:48.336Z,2.29
2019-03-30T06:24:14.181Z,2.28
2019-03-30T06:26:40.026Z,2.42
2019-03-30T06:29:05.891Z,2.38
2019-03-30T06:31:31.733Z,2.38
2019-03-30T06:33:57.578Z,2.68
2019-03-30T06:36:23.424Z,2.88
2019-03-30T06:38:49.261Z,2.99
2019-03-30T06:41:15.111Z,3.14
2019-03-30T06:43:40.959Z,3.27
2019-03-30T06:46:06.793Z,3.53
2019-03-30T06:48:35.861Z,3.67
2019-03-30T06:51:00.413Z,3.83
2019-03-30T06:53:26.264Z,3.96
2019-03-30T06:55:52.115Z,3.98
2019-03-30T06:58:17.961Z,4.26
2019-03-30T07:00:44.840Z,4.38
2019-03-30T07:03:10.678Z,4.68
2019-03-30T07:05:37.335Z,5.08
2019-03-30T07:08:03.440Z,5.24
2019-03-30T07:10:29.507Z,5.29
2019-03-30T07:12:55.488Z,5.31
2019-03-30T07:15:21.696Z,5.27
2019-03-30T07:17:47.524Z,5.84
2019-03-30T07:20:27.152Z,6.42
2019-03-30T07:22:54.612Z,6.27
2019-03-30T07:25:20.442Z,6.83
2019-03-30T07:27:46.275Z,7.14
2019-03-30T07:30:12.211Z,7.29
2019-03-30T07:32:38.062Z,7.54
2019-03-30T07:35:05.011Z,7.69
2019-03-30T07:37:30.858Z,7.94
2019-03-30T07:39:56.690Z,8.20
2019-03-30T07:42:22.563Z,8.22
2019-03-30T07:44:48.413Z,8.53
2019-03-30T07:47:14.244Z,8.85
2019-03-30T07:49:40.097Z,8.54
2019-03-30T07:52:05.937Z,8.72
2019-03-30T07:54:31.820Z,8.65
2019-03-30T07:57:05.416Z,8.23
2019-03-30T07:59:25.434Z,8.62
2019-03-30T08:01:51.390Z,9.01
2019-03-30T08:04:17.265Z,9.01
2019-03-30T08:06:43.143Z,8.96
2019-03-30T08:09:10.928Z,9.33
2019-03-30T08:11:36.786Z,9.43
2019-03-30T08:14:02.870Z,9.43
2019-03-30T08:16:28.718Z,9.63
2019-03-30T08:18:54.666Z,9.56
2019-03-30T08:21:20.594Z,9.84
2019-03-30T08:23:46.421Z,9.78
2019-03-30T08:26:12.289Z,10.25
2019-03-30T08:28:38.148Z,10.00
2019-03-30T08:31:03.994Z,9.77
2019-03-30T08:33:29.837Z,9.99
2019-03-30T08:35:55.682Z,10.03
2019-03-30T08:38:21.511Z,10.10
2019-03-30T08:40:47.379Z,10.23
2019-03-30T08:43:13.319Z,10.84
2019-03-30T08:45:39.189Z,10.80
2019-03-30T08:48:05.028Z,11.02
2019-03-30T08:50:30.924Z,10.34
2019-03-30T08:52:56.776Z,10.72
2019-03-30T08:55:22.610Z,11.24
2019-03-30T08:57:48.453Z,11.32
2019-03-30T09:00:18.208Z,11.06
2019-03-30T09:02:44.084Z,11.70
2019-03-30T09:05:09.932Z,11.70
2019-03-30T09:07:35.792Z,11.78
2019-03-30T09:10:06.806Z,12.03
2019-03-30T09:12:32.691Z,12.16
2019-03-30T09:14:58.519Z,12.16
2019-03-30T09:17:24.385Z,12.19
2019-03-30T09:19:50.234Z,12.05
2019-03-30T09:22:16.108Z,12.54
2019-03-30T09:24:41.951Z,12.81
2019-03-30T09:27:07.793Z,12.64
2019-03-30T09:29:33.657Z,12.46
2019-03-30T09:32:13.235Z,12.41
2019-03-30T09:34:27.284Z,12.43
2019-03-30T09:36:53.344Z,12.52
2019-03-30T09:39:19.285Z,12.55
2019-03-30T09:41:45.203Z,12.83
2019-03-30T09:44:11.179Z,13.16
2019-03-30T09:46:37.081Z,13.10
2019-03-30T09:49:02.902Z,13.10
2019-03-30T09:51:28.739Z,13.12
2019-03-30T09:53:54.629Z,13.24
2019-03-30T09:56:20.492Z,13.18
2019-03-30T09:58:46.368Z,13.26
2019-03-30T10:01:12.222Z,13.19
2019-03-30T10:03:38.078Z,13.30
2019-03-30T10:06:04.022Z,13.30
2019-03-30T10:08:30.125Z,13.50
2019-03-30T10:10:55.988Z,13.49
2019-03-30T10:13:21.859Z,13.71
2019-03-30T10:15:47.686Z,13.71
2019-03-30T10:18:13.521Z,13.62
2019-03-30T10:20:39.375Z,13.72
2019-03-30T10:23:05.197Z,13.69
2019-03-30T10:25:31.922Z,13.54
2019-03-30T10:27:57.781Z,13.75
2019-03-30T10:30:23.617Z,13.77
2019-03-30T10:32:49.472Z,14.01
2019-03-30T10:35:15.292Z,14.01
2019-03-30T10:37:41.170Z,13.99
2019-03-30T10:40:08.230Z,14.08
2019-03-30T10:42:34.121Z,14.08
2019-03-30T10:44:59.957Z,14.32
2019-03-30T10:47:25.828Z,14.12
2019-03-30T10:49:51.975Z,14.31
2019-03-30T10:52:17.823Z,14.51
2019-03-30T10:54:52.483Z,14.70
2019-03-30T10:57:11.458Z,14.62
2019-03-30T10:59:37.311Z,14.65
2019-03-30T11:02:04.605Z,14.95
2019-03-30T11:04:30.913Z,15.12
2019-03-30T11:06:56.758Z,15.12
2019-03-30T11:09:22.702Z,14.90
2019-03-30T11:11:50.129Z,15.27
2019-03-30T11:14:16.792Z,15.57
2019-03-30T11:16:42.718Z,15.43
2019-03-30T11:19:09.824Z,15.82
2019-03-30T11:21:36.628Z,15.81
2019-03-30T11:24:06.497Z,16.09
2019-03-30T11:26:33.539Z,16.26
2019-03-30T11:28:59.849Z,15.86
2019-03-30T11:31:25.722Z,16.00
2019-03-30T11:33:51.573Z,15.95
2019-03-30T11:36:18.787Z,15.80
2019-03-30T11:38:44.792Z,16.31
2019-03-30T11:41:10.642Z,16.49
2019-03-30T11:43:38.449Z,15.85
2019-03-30T11:46:05.230Z,16.46
2019-03-30T11:48:32.554Z,17.01
2019-03-30T11:50:58.400Z,17.14
2019-03-30T11:53:24.253Z,17.43
2019-03-30T11:55:50.124Z,17.87
2019-03-30T11:58:16.092Z,17.50
2019-03-30T12:00:42.068Z,17.55
2019-03-30T12:03:07.935Z,17.47
2019-03-30T12:05:33.769Z,17.38
2019-03-30T12:07:59.620Z,17.32
2019-03-30T12:10:25.471Z,17.75
2019-03-30T12:12:51.329Z,18.01
2019-03-30T12:15:17.508Z,17.83
2019-03-30T12:17:43.341Z,18.00
2019-03-30T12:20:09.201Z,18.20
2019-03-30T12:22:35.045Z,18.79
2019-03-30T12:25:00.916Z,18.24
2019-03-30T12:27:26.762Z,18.26
2019-03-30T12:29:52.597Z,17.64
2019-03-30T12:32:18.450Z,18.68
2019-03-30T12:34:44.751Z,19.06
2019-03-30T12:37:11.028Z,18.38
2019-03-30T12:39:37.000Z,18.63
2019-03-30T12:42:03.065Z,18.26
2019-03-30T12:44:28.914Z,18.74
2019-03-30T12:46:54.938Z,19.12
2019-03-30T12:49:20.806Z,19.15
2019-03-30T12:51:46.652Z,19.15
2019-03-30T12:54:12.498Z,19.28
2019-03-30T12:56:38.346Z,19.23
2019-03-30T12:59:04.201Z,19.23
2019-03-30T13:01:34.387Z,18.94
2019-03-30T13:04:00.236Z,19.40
2019-03-30T13:06:26.106Z,19.17
2019-03-30T13:08:51.949Z,19.82
2019-03-30T13:11:17.827Z,20.26
2019-03-30T13:13:43.757Z,19.93
2019-03-30T13:16:09.695Z,20.23
2019-03-30T13:18:35.504Z,19.63
2019-03-30T13:21:01.365Z,20.11
2019-03-30T13:23:27.196Z,19.73
2019-03-30T13:26:03.404Z,20.34
2019-03-30T13:28:20.806Z,20.06
2019-03-30T13:30:46.649Z,19.27
2019-03-30T13:33:13.138Z,19.69
2019-03-30T13:35:38.977Z,19.61
2019-03-30T13:38:04.866Z,19.82
2019-03-30T13:40:30.718Z,20.31
2019-03-30T13:42:56.589Z,21.13
2019-03-30T13:45:22.430Z,20.80
2019-03-30T13:47:48.306Z,20.84
2019-03-30T13:50:14.299Z,19.73
2019-03-30T13:52:40.144Z,19.55
2019-03-30T13:55:06.208Z,19.26
2019-03-30T13:57:32.094Z,19.13
2019-03-30T13:59:57.963Z,19.23
2019-03-30T14:02:23.810Z,19.58
2019-03-30T14:04:52.253Z,19.24
2019-03-30T14:07:17.429Z,19.84
2019-03-30T14:09:43.303Z,20.94
2019-03-30T14:12:09.140Z,21.28
2019-03-30T14:14:35.054Z,21.99
2019-03-30T14:17:00.886Z,21.09
2019-03-30T14:19:26.764Z,19.61
2019-03-30T14:21:52.613Z,19.75
2019-03-30T14:24:18.493Z,20.68
2019-03-30T14:26:45.174Z,20.79
2019-03-30T14:29:11.093Z,20.08
2019-03-30T14:31:36.960Z,20.46
2019-03-30T14:34:02.921Z,21.01
2019-03-30T14:36:28.771Z,20.55
2019-03-30T14:38:54.644Z,21.07
2019-03-30T14:41:20.515Z,20.42
2019-03-30T14:43:46.353Z,19.85
2019-03-30T14:46:12.378Z,20.16
2019-03-30T14:48:38.226Z,21.21
2019-03-30T14:51:06.004Z,21.57
2019-03-30T14:53:31.888Z,21.90
2019-03-30T14:55:57.756Z,21.47
2019-03-30T14:58:23.850Z,21.31
2019-03-30T15:00:49.706Z,22.00
2019-03-30T15:03:15.687Z,21.31
2019-03-30T15:05:41.599Z,21.29
2019-03-30T15:08:07.560Z,21.10
2019-03-30T15:10:33.525Z,20.22
2019-03-30T15:12:59.401Z,20.14
2019-03-30T15:15:25.259Z,19.85
2019-03-30T15:17:54.375Z,21.78
2019-03-30T15:20:20.240Z,22.00
2019-03-30T15:22:46.103Z,22.42
2019-03-30T15:25:12.156Z,22.21
2019-03-30T15:27:38.113Z,22.06
2019-03-30T15:30:05.326Z,20.07
2019-03-30T15:32:31.330Z,19.89
2019-03-30T15:34:58.473Z,20.06
2019-03-30T15:37:24.517Z,20.21
2019-03-30T15:39:50.400Z,20.33
2019-03-30T15:42:16.392Z,20.93
2019-03-30T15:44:42.249Z,22.21
2019-03-30T15:47:08.235Z,23.05
2019-03-30T15:49:34.102Z,23.27
2019-03-30T15:52:13.304Z,22.66
2019-03-30T15:54:27.734Z,20.75
2019-03-30T15:56:53.604Z,20.80
2019-03-30T15:59:19.436Z,19.74
2019-03-30T16:01:47.824Z,19.39
2019-03-30T16:04:14.599Z,19.15
2019-03-30T16:06:40.546Z,18.22
2019-03-30T16:09:06.514Z,18.11
2019-03-30T16:11:32.344Z,18.15
2019-03-30T16:13:58.297Z,17.91
2019-03-30T16:16:24.154Z,17.80
2019-03-30T16:18:50.007Z,18.52
2019-03-30T16:21:15.851Z,18.40
2019-03-30T16:23:41.706Z,17.87
2019-03-30T16:26:07.548Z,17.79
2019-03-30T16:28:33.413Z,18.01
2019-03-30T16:30:59.794Z,17.45
2019-03-30T16:33:25.745Z,17.46
2019-03-30T16:35:51.588Z,17.23
2019-03-30T16:38:17.427Z,17.20
2019-03-30T16:40:43.302Z,17.14
2019-03-30T16:43:09.212Z,17.01
2019-03-30T16:45:35.163Z,16.99
2019-03-30T16:48:01.010Z,16.94
2019-03-30T16:50:26.854Z,16.78
2019-03-30T16:52:52.956Z,16.68
2019-03-30T16:55:18.827Z,16.69
2019-03-30T16:57:44.762Z,16.63
2019-03-30T17:00:10.817Z,16.48
2019-03-30T17:02:36.918Z,16.48
2019-03-30T17:05:05.587Z,16.36
2019-03-30T17:07:31.403Z,16.37
2019-03-30T17:09:57.353Z,16.29
2019-03-30T17:12:23.278Z,16.12
2019-03-30T17:14:49.123Z,16.11
2019-03-30T17:17:14.942Z,15.99
2019-03-30T17:19:40.780Z,16.00
2019-03-30T17:22:06.622Z,15.93
2019-03-30T17:24:32.477Z,15.76
2019-03-30T17:26:58.314Z,15.72
2019-03-30T17:29:24.167Z,15.60
2019-03-30T17:31:50.014Z,15.51
2019-03-30T17:34:15.860Z,15.41
2019-03-30T17:36:41.731Z,15.30
2019-03-30T17:39:08.285Z,15.25
2019-03-30T17:41:34.528Z,15.15
2019-03-30T17:44:00.366Z,15.03
2019-03-30T17:46:26.202Z,14.98
2019-03-30T17:48:52.332Z,14.90
2019-03-30T17:51:18.193Z,14.69
2019-03-30T17:53:44.059Z,14.35
2019-03-30T17:56:09.919Z,14.14
2019-03-30T17:58:35.788Z,13.97
2019-03-30T18:01:01.722Z,13.77
2019-03-30T18:03:27.562Z,13.62
2019-03-30T18:05:53.445Z,13.59
2019-03-30T18:08:19.295Z,13.51
2019-03-30T18:10:45.139Z,13.44
2019-03-30T18:13:10.999Z,13.43
2019-03-30T18:15:36.811Z,13.50
2019-03-30T18:18:02.692Z,13.34
2019-03-30T18:20:28.627Z,13.22
2019-03-30T18:22:54.464Z,13.23
2019-03-30T18:25:20.336Z,13.14
2019-03-30T18:27:46.185Z,13.02
2019-03-30T18:30:12.529Z,12.85
2019-03-30T18:32:39.367Z,12.97
2019-03-30T18:35:05.378Z,12.94
2019-03-30T18:37:32.086Z,13.01
2019-03-30T18:39:58.165Z,13.10
2019-03-30T18:42:24.246Z,13.03
2019-03-30T18:44:50.874Z,12.68
2019-03-30T18:47:16.726Z,12.29
2019-03-30T18:49:42.843Z,12.31
2019-03-30T18:52:08.828Z,12.21
2019-03-30T18:54:34.977Z,11.94
2019-03-30T18:57:01.236Z,11.61
2019-03-30T18:59:27.080Z,11.40
2019-03-30T19:01:52.947Z,11.40
2019-03-30T19:04:18.964Z,11.33
2019-03-30T19:06:44.832Z,11.40
2019-03-30T19:09:10.653Z,11.28
2019-03-30T19:11:36.625Z,11.04
2019-03-30T19:14:02.479Z,11.11
2019-03-30T19:16:28.307Z,11.16
2019-03-30T19:18:54.189Z,11.13
2019-03-30T19:21:20.027Z,11.06
2019-03-30T19:23:45.897Z,10.78
2019-03-30T19:26:11.827Z,10.42
2019-03-30T19:28:37.685Z,9.97
2019-03-30T19:31:03.530Z,10.10
2019-03-30T19:33:29.402Z,10.21
2019-03-30T19:35:55.240Z,10.32
2019-03-30T19:38:21.097Z,10.44
2019-03-30T19:40:46.989Z,10.34
2019-03-30T19:43:12.819Z,10.25
2019-03-30T19:45:38.907Z,10.29
2019-03-30T19:48:04.750Z,10.23
2019-03-30T19:50:30.609Z,10.23
2019-03-30T19:52:56.458Z,9.37
2019-03-30T19:55:22.333Z,9.58
2019-03-30T19:57:48.165Z,9.75
2019-03-30T20:00:14.546Z,9.75
2019-03-30T20:02:40.485Z,9.82
2019-03-30T20:05:06.516Z,9.82
2019-03-30T20:07:32.399Z,9.43
2019-03-30T20:09:58.241Z,9.43
2019-03-30T20:12:24.254Z,9.59
2019-03-30T20:14:50.181Z,9.37
2019-03-30T20:17:16.025Z,9.37
2019-03-30T20:19:41.856Z,8.90
2019-03-30T20:22:07.709Z,8.79
2019-03-30T20:24:33.657Z,8.95
2019-03-30T20:26:59.516Z,9.17
2019-03-30T20:29:25.983Z,9.11
2019-03-30T20:31:51.923Z,8.67
2019-03-30T20:34:17.785Z,8.67
2019-03-30T20:36:43.636Z,8.78
2019-03-30T20:39:09.585Z,8.75
2019-03-30T20:41:35.454Z,8.80
2019-03-30T20:44:01.329Z,8.68
2019-03-30T20:46:27.188Z,7.87
2019-03-30T20:48:53.073Z,8.10
2019-03-30T20:51:18.929Z,8.24
2019-03-30T20:53:44.811Z,8.17
2019-03-30T20:56:10.666Z,7.95
2019-03-30T20:58:36.535Z,7.86
2019-03-30T21:01:02.480Z,7.67
2019-03-30T21:03:28.363Z,7.67
2019-03-30T21:05:54.207Z,7.73
2019-03-30T21:08:20.056Z,7.71
2019-03-30T21:10:45.905Z,7.94
2019-03-30T21:13:11.766Z,7.95
2019-03-30T21:15:37.625Z,8.02
2019-03-30T21:18:03.459Z,7.23
2019-03-30T21:20:29.342Z,7.13
2019-03-30T21:22:55.172Z,7.13
2019-03-30T21:25:21.040Z,6.87
2019-03-30T21:27:46.885Z,6.97
2019-03-30T21:30:13.050Z,7.27
2019-03-30T21:32:39.004Z,7.37
2019-03-30T21:35:05.749Z,7.30
2019-03-30T21:37:31.704Z,6.89
2019-03-30T21:39:57.530Z,6.57
2019-03-30T21:42:23.405Z,7.01
2019-03-30T21:44:50.119Z,7.19
2019-03-30T21:47:15.991Z,7.21
2019-03-30T21:49:41.819Z,7.16
2019-03-30T21:52:07.706Z,7.23
2019-03-30T21:54:33.548Z,6.95
2019-03-30T21:56:59.422Z,7.06
2019-03-30T21:59:25.302Z,7.15
2019-03-30T22:01:51.160Z,7.27
2019-03-30T22:04:17.028Z,7.11
2019-03-30T22:06:42.969Z,6.74
2019-03-30T22:09:09.057Z,6.97
2019-03-30T22:11:34.902Z,6.99
2019-03-30T22:14:00.757Z,6.46
2019-03-30T22:16:26.592Z,6.70
2019-03-30T22:18:52.492Z,6.74
2019-03-30T22:21:18.339Z,6.35
2019-03-30T22:23:44.181Z,6.13
2019-03-30T22:26:10.035Z,5.97
2019-03-30T22:28:35.867Z,5.76
2019-03-30T22:31:01.742Z,5.86
2019-03-30T22:33:30.679Z,6.07
2019-03-30T22:35:55.709Z,6.33
2019-03-30T22:38:21.548Z,6.29
2019-03-30T22:40:47.492Z,5.99
2019-03-30T22:43:13.372Z,6.22
2019-03-30T22:45:39.250Z,6.31
2019-03-30T22:48:05.080Z,5.93
2019-03-30T22:50:30.919Z,6.14
2019-03-30T22:52:56.761Z,6.29
2019-03-30T22:55:22.607Z,6.13
2019-03-30T22:57:48.473Z,5.90
2019-03-30T23:00:16.344Z,5.44
2019-03-30T23:02:42.216Z,5.64
2019-03-30T23:05:08.355Z,5.64
2019-03-30T23:07:34.480Z,5.69
2019-03-30T23:10:00.380Z,5.84
2019-03-30T23:12:26.240Z,5.79
2019-03-30T23:14:52.103Z,5.95
2019-03-30T23:17:17.963Z,5.90
2019-03-30T23:19:43.820Z,5.89
2019-03-30T23:22:09.666Z,5.54
2019-03-30T23:24:35.499Z,5.53
2019-03-30T23:27:01.346Z,5.29
2019-03-30T23:29:27.223Z,4.89
2019-03-30T23:31:53.063Z,5.08
2019-03-30T23:34:18.920Z,4.91
2019-03-30T23:36:44.882Z,4.72
2019-03-30T23:39:10.753Z,4.74
2019-03-30T23:41:36.630Z,4.93
2019-03-30T23:44:02.856Z,5.13
2019-03-30T23:46:28.717Z,5.02
2019-03-30T23:48:54.837Z,4.60
2019-03-30T23:51:20.708Z,4.69
2019-03-30T23:53:46.540Z,4.95
2019-03-30T23:56:16.217Z,4.72
2019-03-30T23:58:42.055Z,5.20
